createdAt,value
2019-01-31T00:01:46.890Z,131.10
2019-01-31T00:04:39.663Z,147.30
2019-01-31T00:07:49.815Z,135.00
2019-01-31T00:10:47.069Z,136.33
2019-01-31T00:13:45.666Z,140.30
2019-01-31T00:16:44.697Z,147.13
2019-01-31T00:19:43.314Z,146.87
2019-01-31T00:23:03.944Z,155.10
2019-01-31T00:26:04.142Z,143.17
2019-01-31T00:28:57.888Z,139.57
2019-01-31T00:31:43.841Z,146.70
2019-01-31T00:34:45.116Z,141.90
2019-01-31T00:37:28.187Z,136.07
2019-01-31T00:40:34.249Z,141.57
2019-01-31T00:43:55.916Z,138.53
2019-01-31T00:46:49.573Z,142.70
2019-01-31T00:50:00.884Z,151.87
2019-01-31T00:53:10.565Z,136.03
2019-01-31T00:55:57.000Z,147.77
2019-01-31T00:58:46.398Z,138.80
2019-01-31T01:01:58.226Z,161.53
2019-01-31T01:05:12.715Z,154.90
2019-01-31T01:08:05.344Z,154.43
2019-01-31T01:11:24.062Z,152.30
2019-01-31T01:14:49.856Z,146.33
2019-01-31T01:17:33.454Z,152.00
2019-01-31T01:20:18.099Z,148.97
2019-01-31T01:22:57.690Z,152.47
2019-01-31T01:25:47.274Z,162.80
2019-01-31T01:28:43.689Z,149.80
2019-01-31T01:31:33.482Z,140.33
2019-01-31T01:34:30.566Z,157.50
2019-01-31T01:37:31.757Z,144.57
2019-01-31T01:40:32.502Z,146.57
2019-01-31T01:43:35.104Z,150.70
2019-01-31T01:46:56.243Z,159.10
2019-01-31T01:49:42.179Z,151.80
2019-01-31T01:52:42.808Z,157.20
2019-01-31T01:55:43.692Z,149.97
2019-01-31T01:58:50.305Z,156.47
2019-01-31T02:02:07.095Z,165.80
2019-01-31T02:05:24.489Z,164.33
2019-01-31T02:08:22.930Z,161.80
2019-01-31T02:11:12.510Z,163.97
2019-01-31T02:14:20.090Z,154.63
2019-01-31T02:17:20.006Z,155.60
2019-01-31T02:20:25.392Z,157.80
2019-01-31T02:23:31.622Z,150.60
2019-01-31T02:26:54.713Z,166.13
2019-01-31T02:30:05.953Z,171.97
2019-01-31T02:33:45.871Z,168.03
2019-01-31T02:36:52.984Z,154.57
2019-01-31T02:39:56.778Z,157.57
2019-01-31T02:42:33.338Z,163.87
2019-01-31T02:45:26.591Z,160.70
2019-01-31T02:48:05.205Z,154.63
2019-01-31T02:51:02.579Z,171.93
2019-01-31T02:53:58.488Z,158.20
2019-01-31T02:56:56.199Z,161.43
2019-01-31T03:00:15.430Z,165.00
2019-01-31T03:03:14.936Z,165.47
2019-01-31T03:06:18.640Z,154.93
2019-01-31T03:09:13.584Z,160.80
2019-01-31T03:11:55.027Z,160.03
2019-01-31T03:14:41.158Z,160.87
2019-01-31T03:18:05.617Z,157.97
2019-01-31T03:21:21.617Z,156.37
2019-01-31T03:24:09.493Z,172.13
2019-01-31T03:26:57.083Z,164.47
2019-01-31T03:30:14.685Z,165.77
2019-01-31T03:33:05.088Z,165.53
2019-01-31T03:36:17.658Z,165.07
2019-01-31T03:39:12.156Z,156.03
2019-01-31T03:42:18.184Z,171.53
2019-01-31T03:45:42.921Z,164.30
2019-01-31T03:48:25.062Z,158.00
2019-01-31T03:51:18.880Z,149.40
2019-01-31T03:54:02.592Z,153.83
2019-01-31T03:56:51.458Z,175.17
2019-01-31T03:59:42.956Z,166.23
2019-01-31T04:02:48.839Z,147.73
2019-01-31T04:05:46.736Z,181.47
2019-01-31T04:08:18.109Z,164.10
2019-01-31T04:10:49.577Z,163.37
2019-01-31T04:13:20.978Z,160.70
2019-01-31T04:15:52.403Z,162.50
2019-01-31T04:18:23.664Z,192.33
2019-01-31T04:20:54.709Z,177.37
2019-01-31T04:23:25.169Z,179.90
2019-01-31T04:25:56.253Z,171.20
2019-01-31T04:28:30.561Z,175.50
2019-01-31T04:31:01.102Z,182.60
2019-01-31T04:33:32.312Z,161.00
2019-01-31T04:36:03.697Z,168.47
2019-01-31T04:38:35.566Z,170.93
2019-01-31T04:41:07.273Z,162.17
2019-01-31T04:43:38.170Z,173.73
2019-01-31T04:46:09.392Z,170.10
2019-01-31T04:48:40.981Z,176.23
2019-01-31T04:51:12.273Z,168.27
2019-01-31T04:53:43.357Z,170.97
2019-01-31T04:56:14.493Z,178.17
2019-01-31T04:58:45.214Z,163.53
2019-01-31T05:01:16.345Z,150.87
2019-01-31T05:03:49.125Z,160.30
2019-01-31T05:06:20.424Z,161.40
2019-01-31T05:08:52.193Z,146.57
2019-01-31T05:11:24.617Z,159.67
2019-01-31T05:16:51.269Z,148.60
2019-01-31T05:19:22.129Z,140.33
2019-01-31T05:21:53.385Z,164.47
2019-01-31T05:24:24.159Z,172.87
2019-01-31T05:26:56.333Z,159.80
2019-01-31T05:29:33.163Z,153.47
2019-01-31T05:32:06.998Z,155.43
2019-01-31T05:34:37.940Z,160.97
2019-01-31T05:37:24.297Z,164.63
2019-01-31T05:40:03.235Z,157.30
2019-01-31T05:42:36.748Z,156.27
2019-01-31T05:45:09.292Z,182.07
2019-01-31T05:47:40.441Z,167.70
2019-01-31T05:50:15.255Z,152.73
2019-01-31T05:52:59.360Z,165.60
2019-01-31T05:55:30.019Z,160.13
2019-01-31T05:58:00.652Z,145.40
2019-01-31T06:00:35.610Z,159.73
2019-01-31T06:03:17.385Z,176.53
2019-01-31T06:05:52.222Z,149.83
2019-01-31T06:08:24.489Z,151.67
2019-01-31T06:11:07.542Z,166.67
2019-01-31T06:13:45.150Z,200.43
2019-01-31T06:16:23.767Z,209.37
2019-01-31T06:19:03.954Z,203.87
2019-01-31T06:21:44.880Z,195.97
2019-01-31T06:24:25.126Z,190.00
2019-01-31T06:27:04.989Z,189.00
2019-01-31T06:29:57.336Z,209.03
2019-01-31T06:32:46.221Z,202.80
2019-01-31T06:41:44.170Z,179.43
2019-01-31T06:44:21.232Z,181.57
2019-01-31T06:47:23.160Z,183.10
2019-01-31T06:50:00.596Z,190.70
2019-01-31T06:52:45.439Z,183.50
2019-01-31T06:55:16.877Z,190.07
2019-01-31T06:57:52.236Z,185.33
2019-01-31T07:00:31.665Z,182.07
2019-01-31T07:03:02.727Z,191.30
2019-01-31T07:05:39.165Z,195.43
2019-01-31T07:14:08.084Z,189.73
2019-01-31T07:16:39.123Z,188.43
2019-01-31T07:19:19.140Z,192.00
2019-01-31T07:22:04.554Z,185.40
2019-01-31T07:25:02.712Z,165.23
2019-01-31T07:27:37.525Z,185.50
2019-01-31T07:30:13.784Z,186.23
2019-01-31T07:32:47.892Z,189.27
2019-01-31T07:35:38.436Z,181.43
2019-01-31T07:38:14.247Z,191.60
2019-01-31T07:40:47.587Z,188.13
2019-01-31T07:43:47.856Z,191.90
2019-01-31T07:46:26.332Z,188.73
2019-01-31T07:49:06.116Z,178.53
2019-01-31T07:51:35.231Z,164.10
2019-01-31T07:54:08.382Z,179.77
2019-01-31T07:56:46.565Z,163.43
2019-01-31T07:59:48.514Z,178.40
2019-01-31T08:02:31.172Z,172.27
2019-01-31T08:08:22.702Z,174.23
2019-01-31T08:11:06.245Z,181.07
2019-01-31T08:16:35.772Z,166.43
2019-01-31T08:19:09.697Z,171.60
2019-01-31T08:21:41.340Z,178.97
2019-01-31T08:24:13.828Z,184.80
2019-01-31T08:26:47.449Z,179.67
2019-01-31T08:29:33.444Z,161.30
2019-01-31T08:32:18.712Z,187.17
2019-01-31T08:34:54.631Z,176.90
2019-01-31T08:37:33.593Z,164.80
2019-01-31T08:40:18.267Z,185.23
2019-01-31T08:42:52.301Z,173.10
2019-01-31T08:45:28.830Z,160.73
2019-01-31T08:48:13.320Z,150.80
2019-01-31T08:51:25.017Z,160.57
2019-01-31T08:53:28.981Z,169.33
2019-01-31T08:56:12.562Z,164.23
2019-01-31T08:58:44.342Z,161.97
2019-01-31T09:01:28.893Z,167.07
2019-01-31T09:04:22.999Z,185.00
2019-01-31T09:07:00.629Z,172.80
2019-01-31T09:09:31.680Z,171.93
2019-01-31T09:12:14.975Z,176.90
2019-01-31T09:14:54.780Z,169.37
2019-01-31T09:17:45.077Z,175.03
2019-01-31T09:26:54.516Z,182.57
2019-01-31T09:29:44.445Z,170.63
2019-01-31T09:32:38.789Z,171.63
2019-01-31T09:38:39.191Z,174.27
2019-01-31T09:41:26.815Z,178.03
2019-01-31T09:44:37.712Z,157.57
2019-01-31T09:48:03.536Z,162.20
2019-01-31T09:50:58.356Z,155.40
2019-01-31T09:54:06.361Z,151.37
2019-01-31T09:57:07.033Z,154.37
2019-01-31T10:00:27.511Z,150.13
2019-01-31T10:03:41.512Z,153.37
2019-01-31T10:07:20.308Z,133.73
2019-01-31T10:10:40.251Z,140.33
2019-01-31T10:16:41.485Z,145.63
2019-01-31T10:19:41.448Z,156.63
2019-01-31T10:23:07.937Z,142.63
2019-01-31T10:25:08.129Z,146.73
2019-01-31T10:26:00.632Z,144.83
2019-01-31T10:29:21.494Z,133.03
2019-01-31T10:32:20.005Z,146.87
2019-01-31T10:38:20.917Z,131.47
2019-01-31T10:41:21.937Z,133.77
2019-01-31T10:44:51.140Z,129.67
2019-01-31T10:48:05.605Z,133.00
2019-01-31T10:51:01.126Z,133.57
2019-01-31T10:54:01.751Z,129.03
2019-01-31T10:57:21.150Z,124.23
2019-01-31T11:04:04.240Z,130.93
2019-01-31T11:07:18.445Z,135.73
2019-01-31T11:10:41.333Z,133.97
2019-01-31T11:13:47.402Z,131.20
2019-01-31T11:16:48.421Z,162.10
2019-01-31T11:19:50.587Z,142.50
2019-01-31T11:23:18.355Z,128.83
2019-01-31T11:26:34.046Z,134.40
2019-01-31T11:29:37.233Z,135.03
2019-01-31T11:32:47.298Z,132.20
2019-01-31T11:35:58.682Z,136.97
2019-01-31T11:39:15.361Z,126.37
2019-01-31T11:42:16.913Z,117.63
2019-01-31T11:45:14.944Z,110.67
2019-01-31T11:48:18.873Z,126.27
2019-01-31T11:51:39.446Z,163.20
2019-01-31T11:54:55.199Z,239.07
2019-01-31T11:57:57.068Z,266.23
2019-01-31T12:00:28.385Z,266.73
2019-01-31T12:03:02.869Z,274.33
2019-01-31T12:05:34.215Z,238.17
2019-01-31T12:08:05.764Z,212.03
2019-01-31T12:10:38.022Z,147.07
2019-01-31T12:13:08.585Z,150.57
2019-01-31T12:15:41.351Z,142.83
2019-01-31T12:18:13.342Z,121.03
2019-01-31T12:20:44.355Z,138.80
2019-01-31T12:23:14.905Z,122.83
2019-01-31T12:25:47.732Z,156.10
2019-01-31T12:28:19.129Z,123.40
2019-01-31T12:30:51.693Z,133.60
2019-01-31T12:33:23.170Z,138.70
2019-01-31T12:35:54.052Z,338.17
2019-01-31T12:38:24.720Z,305.20
2019-01-31T12:40:59.811Z,170.00
2019-01-31T12:43:35.189Z,164.97
2019-01-31T12:46:04.231Z,150.00
2019-01-31T12:48:37.553Z,147.33
2019-01-31T12:51:08.561Z,159.10
2019-01-31T12:53:39.582Z,138.13
2019-01-31T12:56:11.098Z,107.63
2019-01-31T12:58:43.622Z,120.03
2019-01-31T13:01:16.642Z,117.73
2019-01-31T13:03:49.564Z,108.80
2019-01-31T13:06:23.632Z,122.80
2019-01-31T13:08:54.317Z,117.37
2019-01-31T13:11:27.069Z,110.73
2019-01-31T13:13:57.665Z,110.90
2019-01-31T13:16:28.307Z,95.13
2019-01-31T13:18:59.541Z,116.13
2019-01-31T13:21:32.720Z,106.77
2019-01-31T13:24:03.626Z,121.00
2019-01-31T13:26:34.514Z,278.93
2019-01-31T13:29:07.068Z,229.07
2019-01-31T13:31:39.981Z,177.97
2019-01-31T13:34:10.377Z,139.57
2019-01-31T13:36:42.185Z,144.47
2019-01-31T13:39:15.483Z,131.50
2019-01-31T13:41:46.357Z,140.13
2019-01-31T14:00:27.008Z,141.50
2019-01-31T14:02:57.977Z,142.20
2019-01-31T14:05:30.077Z,136.10
2019-01-31T14:08:01.019Z,131.47
2019-01-31T14:10:32.616Z,131.53
2019-01-31T14:13:04.917Z,133.57
2019-01-31T14:15:44.074Z,136.30
2019-01-31T14:18:14.585Z,120.57
2019-01-31T14:20:45.213Z,129.27
2019-01-31T14:23:19.108Z,129.70
2019-01-31T14:25:49.955Z,125.13
2019-01-31T14:31:25.524Z,121.40
2019-01-31T14:33:56.518Z,121.20
2019-01-31T14:36:27.309Z,120.67
2019-01-31T14:39:01.400Z,100.00
2019-01-31T14:41:32.635Z,110.90
2019-01-31T14:44:03.451Z,114.20
2019-01-31T14:46:34.579Z,112.10
2019-01-31T14:49:05.199Z,113.53
2019-01-31T14:51:36.371Z,119.83
2019-01-31T14:54:06.975Z,109.27
2019-01-31T14:56:38.948Z,105.03
2019-01-31T14:59:10.916Z,97.57
2019-01-31T15:01:41.997Z,99.87
2019-01-31T15:04:12.653Z,108.13
2019-01-31T15:06:43.160Z,106.33
2019-01-31T15:12:17.666Z,105.00
2019-01-31T15:14:48.646Z,99.17
2019-01-31T15:17:19.558Z,109.33
2019-01-31T15:19:50.845Z,113.90
2019-01-31T15:22:21.452Z,107.07
2019-01-31T15:24:52.464Z,103.33
2019-01-31T15:27:23.198Z,120.47
2019-01-31T15:29:54.330Z,148.57
2019-01-31T15:32:25.239Z,177.17
2019-01-31T15:34:56.382Z,192.37
2019-01-31T15:37:27.252Z,201.13
2019-01-31T15:40:00.053Z,207.57
2019-01-31T15:42:31.062Z,216.07
2019-01-31T15:45:01.485Z,223.40
2019-01-31T15:47:32.103Z,230.83
2019-01-31T15:50:04.983Z,224.70
2019-01-31T15:52:37.197Z,301.50
2019-01-31T15:55:08.622Z,261.07
2019-01-31T15:57:41.698Z,237.40
2019-01-31T16:00:40.613Z,213.80
2019-01-31T16:03:31.131Z,237.80
2019-01-31T16:06:02.098Z,227.70
2019-01-31T16:08:34.041Z,234.23
2019-01-31T16:11:04.551Z,228.63
2019-01-31T16:13:35.337Z,206.27
2019-01-31T16:16:06.692Z,202.23
2019-01-31T16:18:37.143Z,212.57
2019-01-31T16:21:07.726Z,213.73
2019-01-31T16:23:39.261Z,213.20
2019-01-31T16:26:10.779Z,216.57
2019-01-31T16:28:41.301Z,208.63
2019-01-31T16:31:12.557Z,210.67
2019-01-31T16:33:43.612Z,208.83
2019-01-31T16:36:14.345Z,191.87
2019-01-31T16:38:45.659Z,208.03
2019-01-31T16:41:17.550Z,197.10
2019-01-31T16:43:48.164Z,207.97
2019-01-31T16:46:18.642Z,194.70
2019-01-31T16:48:49.441Z,199.57
2019-01-31T16:51:19.994Z,192.50
2019-01-31T16:53:50.517Z,197.63
2019-01-31T16:56:21.198Z,206.53
2019-01-31T16:58:52.412Z,194.03
2019-01-31T17:01:23.169Z,197.33
2019-01-31T17:03:53.776Z,190.70
2019-01-31T17:06:24.245Z,188.50
2019-01-31T17:08:54.919Z,206.70
2019-01-31T17:11:26.398Z,188.80
2019-01-31T17:13:57.057Z,207.97
2019-01-31T17:16:27.596Z,205.70
2019-01-31T17:18:58.118Z,204.90
2019-01-31T17:21:28.691Z,215.63
2019-01-31T17:23:59.574Z,213.43
2019-01-31T17:26:32.669Z,225.17
2019-01-31T17:29:03.315Z,206.30
2019-01-31T17:31:33.965Z,204.70
2019-01-31T17:34:04.845Z,217.87
2019-01-31T17:36:36.179Z,209.83
2019-01-31T17:39:08.570Z,178.77
2019-01-31T17:41:40.712Z,190.60
2019-01-31T17:44:11.125Z,206.17
2019-01-31T17:46:41.965Z,197.57
2019-01-31T17:49:13.084Z,213.07
2019-01-31T17:51:43.790Z,229.40
2019-01-31T17:54:14.318Z,227.47
2019-01-31T17:56:45.665Z,223.37
2019-01-31T17:59:16.676Z,227.83
2019-01-31T18:01:47.373Z,241.80
2019-01-31T18:04:17.897Z,247.17
2019-01-31T18:06:48.477Z,241.07
2019-01-31T18:09:19.072Z,237.17
2019-01-31T18:11:59.003Z,254.87
2019-01-31T18:14:29.987Z,249.93
2019-01-31T18:17:00.793Z,259.20
2019-01-31T18:19:31.385Z,232.37
2019-01-31T18:22:01.936Z,243.77
2019-01-31T18:24:32.559Z,225.70
2019-01-31T18:27:05.764Z,233.53
2019-01-31T18:29:36.919Z,227.07
2019-01-31T18:32:09.052Z,244.77
2019-01-31T18:34:40.162Z,223.03
2019-01-31T18:37:10.933Z,227.83
2019-01-31T18:39:42.615Z,215.40
2019-01-31T18:42:13.186Z,219.80
2019-01-31T18:44:43.931Z,210.13
2019-01-31T18:47:15.057Z,214.50
2019-01-31T18:49:45.866Z,204.53
2019-01-31T18:52:16.949Z,203.23
2019-01-31T18:54:49.373Z,214.77
2019-01-31T18:57:20.153Z,201.07
2019-01-31T18:59:52.470Z,201.03
2019-01-31T19:02:23.238Z,205.40
2019-01-31T19:04:54.334Z,209.13
2019-01-31T19:07:25.126Z,185.90
2019-01-31T19:09:55.779Z,196.80
2019-01-31T19:12:26.228Z,198.37
2019-01-31T19:14:56.965Z,221.73
2019-01-31T19:17:27.697Z,205.27
2019-01-31T19:19:58.741Z,203.13
2019-01-31T19:22:29.843Z,205.93
2019-01-31T19:25:01.014Z,228.53
2019-01-31T19:27:32.189Z,215.60
2019-01-31T19:30:04.539Z,200.17
2019-01-31T19:32:37.447Z,202.57
2019-01-31T19:35:12.790Z,200.97
2019-01-31T19:37:44.126Z,184.97
2019-01-31T19:40:19.071Z,178.40
2019-01-31T19:42:50.483Z,175.67
2019-01-31T19:45:25.555Z,195.47
2019-01-31T19:47:56.720Z,184.83
2019-01-31T19:50:27.918Z,182.77
2019-01-31T19:52:59.664Z,181.50
2019-01-31T19:55:30.753Z,184.07
2019-01-31T19:58:01.924Z,166.70
2019-01-31T20:03:37.315Z,182.63
2019-01-31T20:06:08.191Z,169.67
2019-01-31T20:08:39.490Z,172.93
2019-01-31T20:11:10.267Z,168.27
2019-01-31T20:13:43.837Z,172.00
2019-01-31T20:16:16.182Z,182.67
2019-01-31T20:18:46.694Z,164.50
2019-01-31T20:21:17.325Z,164.43
2019-01-31T20:23:48.017Z,166.10
2019-01-31T20:26:18.999Z,165.63
2019-01-31T20:28:53.496Z,165.27
2019-01-31T20:31:26.238Z,173.73
2019-01-31T20:33:57.685Z,160.77
2019-01-31T20:36:28.362Z,161.37
2019-01-31T20:38:59.249Z,165.97
2019-01-31T20:41:30.005Z,171.27
2019-01-31T20:44:00.424Z,161.13
2019-01-31T20:46:39.784Z,154.83
2019-01-31T20:57:58.410Z,151.03
2019-01-31T21:00:35.632Z,150.57
2019-01-31T21:03:06.605Z,149.33
2019-01-31T21:05:37.869Z,148.23
2019-01-31T21:08:10.747Z,146.10
2019-01-31T21:10:42.330Z,138.60
2019-01-31T21:13:13.705Z,158.43
2019-01-31T21:15:44.378Z,151.57
2019-01-31T21:18:15.023Z,155.83
2019-01-31T21:20:45.593Z,143.30
2019-01-31T21:23:16.578Z,148.13
2019-01-31T21:25:47.251Z,146.67
2019-01-31T21:28:17.940Z,143.17
2019-01-31T21:30:49.091Z,138.60
2019-01-31T21:33:20.530Z,152.70
2019-01-31T21:35:51.188Z,142.93
2019-01-31T22:51:23.873Z,136.27
2019-01-31T22:53:54.622Z,136.20
2019-01-31T22:56:26.898Z,132.13
2019-01-31T22:58:58.513Z,136.43
2019-01-31T23:01:39.265Z,128.13
2019-01-31T23:04:10.721Z,128.83
2019-01-31T23:06:42.341Z,116.40
2019-01-31T23:09:13.918Z,124.33
2019-01-31T23:11:44.662Z,127.73
2019-01-31T23:14:15.748Z,126.50
2019-01-31T23:16:47.118Z,121.53
2019-01-31T23:19:20.019Z,126.43
2019-01-31T23:21:51.486Z,134.33
2019-01-31T23:24:22.789Z,119.17
2019-01-31T23:26:54.012Z,126.87
2019-01-31T23:29:25.389Z,120.90
2019-01-31T23:31:56.681Z,135.00
2019-01-31T23:34:27.475Z,120.10
2019-01-31T23:36:59.078Z,119.77
2019-01-31T23:39:30.619Z,105.80
2019-01-31T23:42:15.108Z,119.10
2019-01-31T23:44:46.363Z,113.07
2019-01-31T23:47:17.689Z,104.97
2019-01-31T23:49:52.126Z,115.93
2019-01-31T23:52:32.844Z,115.93
2019-01-31T23:55:06.812Z,130.33
2019-01-31T23:57:39.043Z,119.83
